sensor_id;sensor_type;location;lat;lon;timestamp;P1;durP1;ratioP1;P2;durP2;ratioP2
70367;SDS011;57789;53.868;10.728;2022-08-01T00:01:22;7.80;;;7.00;;
70367;SDS011;57789;53.868;10.728;2022-08-01T00:03:47;8.37;;;7.50;;
70367;SDS011;57789;53.868;10.728;2022-08-01T00:06:15;8.07;;;7.30;;
70367;SDS011;57789;53.868;10.728;2022-08-01T00:08:41;7.83;;;6.53;;
70367;SDS011;57789;53.868;10.728;2022-08-01T00:11:07;12.30;;;7.90;;
70367;SDS011;57789;53.868;10.728;2022-08-01T00:13:34;9.43;;;7.30;;
70367;SDS011;57789;53.868;10.728;2022-08-01T00:16:00;9.00;;;7.20;;
70367;SDS011;57789;53.868;10.728;2022-08-01T00:18:26;7.57;;;6.80;;
70367;SDS011;57789;53.868;10.728;2022-08-01T00:20:51;8.70;;;7.47;;
70367;SDS011;57789;53.868;10.728;2022-08-01T00:23:17;16.80;;;14.20;;
70367;SDS011;57789;53.868;10.728;2022-08-01T00:25:43;13.13;;;10.33;;
70367;SDS011;57789;53.868;10.728;2022-08-01T00:28:08;17.43;;;12.87;;
70367;SDS011;57789;53.868;10.728;2022-08-01T00:30:35;22.37;;;19.03;;
70367;SDS011;57789;53.868;10.728;2022-08-01T00:33:01;9.20;;;8.40;;
70367;SDS011;57789;53.868;10.728;2022-08-01T00:35:27;10.23;;;9.20;;
70367;SDS011;57789;53.868;10.728;2022-08-01T00:37:53;10.17;;;9.17;;
70367;SDS011;57789;53.868;10.728;2022-08-01T00:40:18;12.90;;;9.87;;
70367;SDS011;57789;53.868;10.728;2022-08-01T00:42:44;10.33;;;9.17;;
70367;SDS011;57789;53.868;10.728;2022-08-01T00:45:10;10.20;;;9.20;;
70367;SDS011;57789;53.868;10.728;2022-08-01T00:47:36;10.53;;;9.50;;
70367;SDS011;57789;53.868;10.728;2022-08-01T00:50:06;11.80;;;10.10;;
70367;SDS011;57789;53.868;10.728;2022-08-01T00:52:32;11.13;;;10.03;;
70367;SDS011;57789;53.868;10.728;2022-08-01T00:54:59;11.30;;;10.10;;
70367;SDS011;57789;53.868;10.728;2022-08-01T00:57:25;13.40;;;11.43;;
70367;SDS011;57789;53.868;10.728;2022-08-01T00:59:51;14.13;;;10.20;;
70367;SDS011;57789;53.868;10.728;2022-08-01T01:02:17;13.77;;;12.47;;
70367;SDS011;57789;53.868;10.728;2022-08-01T01:04:43;14.57;;;12.50;;
70367;SDS011;57789;53.868;10.728;2022-08-01T01:07:13;12.10;;;10.90;;
70367;SDS011;57789;53.868;10.728;2022-08-01T01:09:54;20.77;;;12.70;;
70367;SDS011;57789;53.868;10.728;2022-08-01T01:12:33;18.53;;;13.07;;
70367;SDS011;57789;53.868;10.728;2022-08-01T01:15:23;19.07;;;11.47;;
70367;SDS011;57789;53.868;10.728;2022-08-01T01:18:02;15.80;;;14.20;;
70367;SDS011;57789;53.868;10.728;2022-08-01T01:20:37;19.57;;;14.13;;
70367;SDS011;57789;53.868;10.728;2022-08-01T01:23:24;21.53;;;15.70;;
70367;SDS011;57789;53.868;10.728;2022-08-01T01:28:55;24.87;;;15.23;;
70367;SDS011;57789;53.868;10.728;2022-08-01T01:31:26;16.67;;;14.90;;
70367;SDS011;57789;53.868;10.728;2022-08-01T01:33:53;17.90;;;15.30;;
70367;SDS011;57789;53.868;10.728;2022-08-01T01:36:20;19.43;;;15.30;;
70367;SDS011;57789;53.868;10.728;2022-08-01T01:38:49;17.30;;;15.50;;
70367;SDS011;57789;53.868;10.728;2022-08-01T01:41:17;18.67;;;16.13;;
70367;SDS011;57789;53.868;10.728;2022-08-01T01:43:44;20.10;;;15.40;;
70367;SDS011;57789;53.868;10.728;2022-08-01T01:46:15;18.53;;;16.73;;
70367;SDS011;57789;53.868;10.728;2022-08-01T01:48:43;18.70;;;16.17;;
70367;SDS011;57789;53.868;10.728;2022-08-01T01:51:11;23.00;;;15.90;;
70367;SDS011;57789;53.868;10.728;2022-08-01T01:53:40;19.13;;;16.90;;
70367;SDS011;57789;53.868;10.728;2022-08-01T01:56:06;31.27;;;17.97;;
70367;SDS011;57789;53.868;10.728;2022-08-01T01:58:34;19.50;;;17.53;;
70367;SDS011;57789;53.868;10.728;2022-08-01T02:01:02;18.40;;;15.90;;
70367;SDS011;57789;53.868;10.728;2022-08-01T02:03:28;17.63;;;15.83;;
70367;SDS011;57789;53.868;10.728;2022-08-01T02:05:56;17.87;;;15.63;;
70367;SDS011;57789;53.868;10.728;2022-08-01T02:08:22;20.53;;;16.30;;
70367;SDS011;57789;53.868;10.728;2022-08-01T02:10:50;19.07;;;16.17;;
70367;SDS011;57789;53.868;10.728;2022-08-01T02:13:37;18.20;;;15.87;;
70367;SDS011;57789;53.868;10.728;2022-08-01T02:16:04;20.60;;;16.37;;
70367;SDS011;57789;53.868;10.728;2022-08-01T02:18:31;20.40;;;17.30;;
70367;SDS011;57789;53.868;10.728;2022-08-01T02:20:57;23.87;;;17.20;;
70367;SDS011;57789;53.868;10.728;2022-08-01T02:23:27;21.90;;;18.80;;
70367;SDS011;57789;53.868;10.728;2022-08-01T02:25:57;24.80;;;17.73;;
70367;SDS011;57789;53.868;10.728;2022-08-01T02:28:28;23.30;;;17.77;;
70367;SDS011;57789;53.868;10.728;2022-08-01T02:31:00;26.03;;;19.30;;
70367;SDS011;57789;53.868;10.728;2022-08-01T02:33:39;30.93;;;19.27;;
70367;SDS011;57789;53.868;10.728;2022-08-01T02:36:08;32.27;;;19.80;;
70367;SDS011;57789;53.868;10.728;2022-08-01T02:38:36;20.83;;;17.30;;
70367;SDS011;57789;53.868;10.728;2022-08-01T02:41:06;23.70;;;19.17;;
70367;SDS011;57789;53.868;10.728;2022-08-01T02:43:34;24.57;;;17.63;;
70367;SDS011;57789;53.868;10.728;2022-08-01T02:46:03;30.60;;;19.00;;
70367;SDS011;57789;53.868;10.728;2022-08-01T02:48:31;29.90;;;19.97;;
70367;SDS011;57789;53.868;10.728;2022-08-01T02:51:00;24.40;;;17.57;;
70367;SDS011;57789;53.868;10.728;2022-08-01T02:53:27;32.43;;;20.23;;
70367;SDS011;57789;53.868;10.728;2022-08-01T02:55:57;29.07;;;18.60;;
70367;SDS011;57789;53.868;10.728;2022-08-01T02:58:25;31.80;;;19.97;;
70367;SDS011;57789;53.868;10.728;2022-08-01T03:00:51;32.30;;;19.87;;
70367;SDS011;57789;53.868;10.728;2022-08-01T03:03:18;36.33;;;20.97;;
70367;SDS011;57789;53.868;10.728;2022-08-01T03:05:44;33.90;;;20.93;;
70367;SDS011;57789;53.868;10.728;2022-08-01T03:08:11;33.87;;;23.20;;
70367;SDS011;57789;53.868;10.728;2022-08-01T03:10:40;41.80;;;22.37;;
70367;SDS011;57789;53.868;10.728;2022-08-01T03:13:13;36.63;;;21.47;;
70367;SDS011;57789;53.868;10.728;2022-08-01T03:15:40;39.10;;;22.37;;
70367;SDS011;57789;53.868;10.728;2022-08-01T03:18:08;29.97;;;20.70;;
70367;SDS011;57789;53.868;10.728;2022-08-01T03:20:36;34.33;;;20.53;;
70367;SDS011;57789;53.868;10.728;2022-08-01T03:23:06;40.33;;;21.80;;
70367;SDS011;57789;53.868;10.728;2022-08-01T03:25:34;26.13;;;20.13;;
70367;SDS011;57789;53.868;10.728;2022-08-01T03:28:03;25.80;;;18.27;;
70367;SDS011;57789;53.868;10.728;2022-08-01T03:30:30;27.60;;;18.13;;
70367;SDS011;57789;53.868;10.728;2022-08-01T03:32:57;32.77;;;19.93;;
70367;SDS011;57789;53.868;10.728;2022-08-01T03:35:26;28.80;;;19.27;;
70367;SDS011;57789;53.868;10.728;2022-08-01T03:38:08;28.63;;;18.20;;
70367;SDS011;57789;53.868;10.728;2022-08-01T03:43:04;30.10;;;16.70;;
70367;SDS011;57789;53.868;10.728;2022-08-01T03:45:35;24.77;;;16.57;;
70367;SDS011;57789;53.868;10.728;2022-08-01T03:48:05;21.90;;;15.47;;
70367;SDS011;57789;53.868;10.728;2022-08-01T03:50:44;30.60;;;17.73;;
70367;SDS011;57789;53.868;10.728;2022-08-01T03:53:13;31.03;;;19.87;;
70367;SDS011;57789;53.868;10.728;2022-08-01T03:55:41;22.37;;;16.40;;
70367;SDS011;57789;53.868;10.728;2022-08-01T03:58:09;27.20;;;17.97;;
70367;SDS011;57789;53.868;10.728;2022-08-01T04:00:38;27.97;;;18.00;;
70367;SDS011;57789;53.868;10.728;2022-08-01T04:03:04;29.10;;;18.07;;
70367;SDS011;57789;53.868;10.728;2022-08-01T04:05:33;23.63;;;17.00;;
70367;SDS011;57789;53.868;10.728;2022-08-01T04:08:00;29.93;;;18.20;;
70367;SDS011;57789;53.868;10.728;2022-08-01T04:10:27;23.27;;;16.33;;
70367;SDS011;57789;53.868;10.728;2022-08-01T04:12:56;24.90;;;18.00;;
70367;SDS011;57789;53.868;10.728;2022-08-01T04:15:22;26.03;;;17.23;;
70367;SDS011;57789;53.868;10.728;2022-08-01T04:17:48;25.23;;;18.00;;
70367;SDS011;57789;53.868;10.728;2022-08-01T04:20:14;26.67;;;17.40;;
70367;SDS011;57789;53.868;10.728;2022-08-01T04:22:40;24.43;;;17.07;;
70367;SDS011;57789;53.868;10.728;2022-08-01T04:25:11;34.60;;;19.17;;
70367;SDS011;57789;53.868;10.728;2022-08-01T04:27:42;34.60;;;17.60;;
70367;SDS011;57789;53.868;10.728;2022-08-01T04:30:11;22.07;;;16.00;;
70367;SDS011;57789;53.868;10.728;2022-08-01T04:32:39;26.70;;;18.60;;
70367;SDS011;57789;53.868;10.728;2022-08-01T04:35:09;22.87;;;17.60;;
70367;SDS011;57789;53.868;10.728;2022-08-01T04:37:41;26.17;;;17.60;;
70367;SDS011;57789;53.868;10.728;2022-08-01T04:40:10;73.13;;;44.57;;
70367;SDS011;57789;53.868;10.728;2022-08-01T04:42:36;32.37;;;18.90;;
70367;SDS011;57789;53.868;10.728;2022-08-01T04:45:03;30.07;;;17.40;;
70367;SDS011;57789;53.868;10.728;2022-08-01T04:47:29;28.53;;;18.37;;
70367;SDS011;57789;53.868;10.728;2022-08-01T04:49:55;21.13;;;16.83;;
70367;SDS011;57789;53.868;10.728;2022-08-01T04:52:22;24.07;;;18.63;;
70367;SDS011;57789;53.868;10.728;2022-08-01T04:54:47;25.73;;;17.30;;
70367;SDS011;57789;53.868;10.728;2022-08-01T04:57:13;24.27;;;19.43;;
70367;SDS011;57789;53.868;10.728;2022-08-01T04:59:41;26.13;;;17.30;;
70367;SDS011;57789;53.868;10.728;2022-08-01T05:02:09;24.43;;;18.53;;
70367;SDS011;57789;53.868;10.728;2022-08-01T05:04:43;25.00;;;18.97;;
70367;SDS011;57789;53.868;10.728;2022-08-01T05:07:11;27.53;;;19.20;;
70367;SDS011;57789;53.868;10.728;2022-08-01T05:09:38;21.40;;;17.30;;
70367;SDS011;57789;53.868;10.728;2022-08-01T05:12:08;23.83;;;16.80;;
70367;SDS011;57789;53.868;10.728;2022-08-01T05:14:35;22.63;;;18.87;;
70367;SDS011;57789;53.868;10.728;2022-08-01T05:17:03;27.53;;;18.03;;
70367;SDS011;57789;53.868;10.728;2022-08-01T05:19:31;25.80;;;19.27;;
70367;SDS011;57789;53.868;10.728;2022-08-01T05:21:58;19.93;;;16.80;;
70367;SDS011;57789;53.868;10.728;2022-08-01T05:24:25;25.57;;;17.10;;
70367;SDS011;57789;53.868;10.728;2022-08-01T05:26:57;22.00;;;14.73;;
70367;SDS011;57789;53.868;10.728;2022-08-01T05:29:24;16.73;;;15.00;;
70367;SDS011;57789;53.868;10.728;2022-08-01T05:31:50;25.03;;;14.60;;
70367;SDS011;57789;53.868;10.728;2022-08-01T05:34:16;18.20;;;14.90;;
70367;SDS011;57789;53.868;10.728;2022-08-01T05:36:42;20.23;;;14.47;;
70367;SDS011;57789;53.868;10.728;2022-08-01T05:39:09;20.37;;;14.87;;
70367;SDS011;57789;53.868;10.728;2022-08-01T05:41:35;26.53;;;16.50;;
70367;SDS011;57789;53.868;10.728;2022-08-01T05:44:01;21.90;;;14.50;;
70367;SDS011;57789;53.868;10.728;2022-08-01T05:46:28;18.97;;;12.50;;
70367;SDS011;57789;53.868;10.728;2022-08-01T05:48:55;11.47;;;10.30;;
70367;SDS011;57789;53.868;10.728;2022-08-01T05:51:25;14.80;;;10.07;;
70367;SDS011;57789;53.868;10.728;2022-08-01T05:53:51;16.50;;;10.63;;
70367;SDS011;57789;53.868;10.728;2022-08-01T05:56:17;12.27;;;10.00;;
70367;SDS011;57789;53.868;10.728;2022-08-01T05:58:43;17.40;;;8.10;;
70367;SDS011;57789;53.868;10.728;2022-08-01T06:01:08;16.03;;;7.03;;
70367;SDS011;57789;53.868;10.728;2022-08-01T06:03:35;11.70;;;6.70;;
70367;SDS011;57789;53.868;10.728;2022-08-01T06:06:01;9.70;;;6.10;;
70367;SDS011;57789;53.868;10.728;2022-08-01T06:08:26;5.70;;;5.10;;
70367;SDS011;57789;53.868;10.728;2022-08-01T06:10:52;4.97;;;3.50;;
70367;SDS011;57789;53.868;10.728;2022-08-01T06:13:18;4.57;;;3.40;;
70367;SDS011;57789;53.868;10.728;2022-08-01T06:15:44;8.80;;;3.60;;
70367;SDS011;57789;53.868;10.728;2022-08-01T06:18:10;7.93;;;3.03;;
70367;SDS011;57789;53.868;10.728;2022-08-01T06:20:36;3.80;;;3.13;;
70367;SDS011;57789;53.868;10.728;2022-08-01T06:23:02;8.50;;;3.00;;
70367;SDS011;57789;53.868;10.728;2022-08-01T06:25:28;5.40;;;3.00;;
70367;SDS011;57789;53.868;10.728;2022-08-01T06:27:54;6.60;;;3.20;;
70367;SDS011;57789;53.868;10.728;2022-08-01T06:30:19;5.13;;;3.43;;
70367;SDS011;57789;53.868;10.728;2022-08-01T06:32:45;8.87;;;3.53;;
70367;SDS011;57789;53.868;10.728;2022-08-01T06:35:11;6.10;;;4.60;;
70367;SDS011;57789;53.868;10.728;2022-08-01T06:37:39;10.97;;;3.90;;
70367;SDS011;57789;53.868;10.728;2022-08-01T06:40:07;4.10;;;3.70;;
70367;SDS011;57789;53.868;10.728;2022-08-01T06:42:34;5.40;;;4.17;;
70367;SDS011;57789;53.868;10.728;2022-08-01T06:45:03;10.30;;;5.00;;
70367;SDS011;57789;53.868;10.728;2022-08-01T06:47:30;7.93;;;4.63;;
70367;SDS011;57789;53.868;10.728;2022-08-01T06:49:56;4.90;;;3.63;;
70367;SDS011;57789;53.868;10.728;2022-08-01T06:52:21;9.00;;;4.67;;
70367;SDS011;57789;53.868;10.728;2022-08-01T06:54:47;13.87;;;5.50;;
70367;SDS011;57789;53.868;10.728;2022-08-01T06:57:13;6.20;;;4.17;;
70367;SDS011;57789;53.868;10.728;2022-08-01T06:59:39;6.57;;;4.50;;
70367;SDS011;57789;53.868;10.728;2022-08-01T07:02:04;12.10;;;4.80;;
70367;SDS011;57789;53.868;10.728;2022-08-01T07:04:31;19.83;;;6.20;;
70367;SDS011;57789;53.868;10.728;2022-08-01T07:06:57;4.73;;;3.83;;
70367;SDS011;57789;53.868;10.728;2022-08-01T07:09:22;5.40;;;3.53;;
70367;SDS011;57789;53.868;10.728;2022-08-01T07:11:48;6.27;;;4.20;;
70367;SDS011;57789;53.868;10.728;2022-08-01T07:14:15;7.00;;;4.10;;
70367;SDS011;57789;53.868;10.728;2022-08-01T07:16:41;7.00;;;3.40;;
70367;SDS011;57789;53.868;10.728;2022-08-01T07:19:06;4.33;;;3.30;;
70367;SDS011;57789;53.868;10.728;2022-08-01T07:21:33;4.40;;;3.80;;
70367;SDS011;57789;53.868;10.728;2022-08-01T07:23:58;3.73;;;3.40;;
70367;SDS011;57789;53.868;10.728;2022-08-01T07:26:24;7.93;;;4.63;;
70367;SDS011;57789;53.868;10.728;2022-08-01T07:28:51;5.03;;;4.53;;
70367;SDS011;57789;53.868;10.728;2022-08-01T07:31:18;5.10;;;4.30;;
70367;SDS011;57789;53.868;10.728;2022-08-01T07:33:43;12.50;;;4.53;;
70367;SDS011;57789;53.868;10.728;2022-08-01T07:36:09;7.30;;;4.57;;
70367;SDS011;57789;53.868;10.728;2022-08-01T07:38:35;10.77;;;5.17;;
70367;SDS011;57789;53.868;10.728;2022-08-01T07:41:00;4.83;;;4.40;;
70367;SDS011;57789;53.868;10.728;2022-08-01T07:43:29;12.73;;;4.43;;
70367;SDS011;57789;53.868;10.728;2022-08-01T07:45:54;6.57;;;4.00;;
70367;SDS011;57789;53.868;10.728;2022-08-01T07:48:20;5.93;;;4.30;;
70367;SDS011;57789;53.868;10.728;2022-08-01T07:50:49;4.80;;;4.30;;
70367;SDS011;57789;53.868;10.728;2022-08-01T07:53:15;3.90;;;3.60;;
70367;SDS011;57789;53.868;10.728;2022-08-01T07:55:41;5.70;;;4.33;;
70367;SDS011;57789;53.868;10.728;2022-08-01T07:58:10;8.77;;;5.33;;
70367;SDS011;57789;53.868;10.728;2022-08-01T08:00:35;8.73;;;5.40;;
70367;SDS011;57789;53.868;10.728;2022-08-01T08:03:01;6.70;;;6.00;;
70367;SDS011;57789;53.868;10.728;2022-08-01T08:05:30;6.50;;;5.23;;
70367;SDS011;57789;53.868;10.728;2022-08-01T08:07:59;9.00;;;5.10;;
70367;SDS011;57789;53.868;10.728;2022-08-01T08:10:32;6.33;;;5.60;;
70367;SDS011;57789;53.868;10.728;2022-08-01T08:12:58;6.90;;;5.80;;
70367;SDS011;57789;53.868;10.728;2022-08-01T08:15:24;8.10;;;5.90;;
70367;SDS011;57789;53.868;10.728;2022-08-01T08:17:50;7.67;;;5.23;;
70367;SDS011;57789;53.868;10.728;2022-08-01T08:20:15;10.23;;;5.50;;
70367;SDS011;57789;53.868;10.728;2022-08-01T08:22:41;8.30;;;5.67;;
70367;SDS011;57789;53.868;10.728;2022-08-01T08:25:07;6.57;;;5.07;;
70367;SDS011;57789;53.868;10.728;2022-08-01T08:27:34;6.13;;;5.37;;
70367;SDS011;57789;53.868;10.728;2022-08-01T08:30:00;10.03;;;5.60;;
70367;SDS011;57789;53.868;10.728;2022-08-01T08:32:26;7.57;;;5.10;;
70367;SDS011;57789;53.868;10.728;2022-08-01T08:34:52;6.10;;;5.07;;
70367;SDS011;57789;53.868;10.728;2022-08-01T08:37:18;11.20;;;5.20;;
70367;SDS011;57789;53.868;10.728;2022-08-01T08:39:44;9.50;;;5.67;;
70367;SDS011;57789;53.868;10.728;2022-08-01T08:42:10;9.23;;;5.80;;
70367;SDS011;57789;53.868;10.728;2022-08-01T08:44:36;14.20;;;5.73;;
70367;SDS011;57789;53.868;10.728;2022-08-01T08:47:03;12.33;;;5.53;;
70367;SDS011;57789;53.868;10.728;2022-08-01T08:49:32;10.07;;;4.60;;
70367;SDS011;57789;53.868;10.728;2022-08-01T08:51:59;9.93;;;4.07;;
70367;SDS011;57789;53.868;10.728;2022-08-01T08:54:26;4.77;;;4.27;;
70367;SDS011;57789;53.868;10.728;2022-08-01T08:56:53;11.57;;;4.53;;
70367;SDS011;57789;53.868;10.728;2022-08-01T08:59:20;11.47;;;4.50;;
70367;SDS011;57789;53.868;10.728;2022-08-01T09:01:47;12.73;;;4.23;;
70367;SDS011;57789;53.868;10.728;2022-08-01T09:04:12;3.40;;;3.10;;
70367;SDS011;57789;53.868;10.728;2022-08-01T09:06:39;7.03;;;4.00;;
70367;SDS011;57789;53.868;10.728;2022-08-01T09:09:06;6.13;;;3.93;;
70367;SDS011;57789;53.868;10.728;2022-08-01T09:11:33;7.07;;;2.90;;
70367;SDS011;57789;53.868;10.728;2022-08-01T09:16:47;16.77;;;2.73;;
70367;SDS011;57789;53.868;10.728;2022-08-01T09:19:38;4.33;;;2.60;;
70367;SDS011;57789;53.868;10.728;2022-08-01T09:22:12;5.47;;;3.00;;
70367;SDS011;57789;53.868;10.728;2022-08-01T09:27:32;6.60;;;3.17;;
70367;SDS011;57789;53.868;10.728;2022-08-01T09:30:12;4.70;;;2.77;;
70367;SDS011;57789;53.868;10.728;2022-08-01T09:35:28;8.40;;;4.47;;
70367;SDS011;57789;53.868;10.728;2022-08-01T09:38:19;12.27;;;4.20;;
70367;SDS011;57789;53.868;10.728;2022-08-01T09:40:50;5.47;;;3.70;;
70367;SDS011;57789;53.868;10.728;2022-08-01T09:43:17;5.73;;;2.97;;
70367;SDS011;57789;53.868;10.728;2022-08-01T09:45:44;9.17;;;3.53;;
70367;SDS011;57789;53.868;10.728;2022-08-01T09:48:10;6.50;;;4.37;;
70367;SDS011;57789;53.868;10.728;2022-08-01T09:50:43;10.00;;;4.27;;
70367;SDS011;57789;53.868;10.728;2022-08-01T09:53:14;17.10;;;3.83;;
70367;SDS011;57789;53.868;10.728;2022-08-01T09:55:40;13.40;;;4.23;;
70367;SDS011;57789;53.868;10.728;2022-08-01T09:58:07;8.23;;;3.97;;
70367;SDS011;57789;53.868;10.728;2022-08-01T10:00:33;14.70;;;5.00;;
70367;SDS011;57789;53.868;10.728;2022-08-01T10:03:00;6.53;;;4.10;;
70367;SDS011;57789;53.868;10.728;2022-08-01T10:05:47;6.60;;;3.63;;
70367;SDS011;57789;53.868;10.728;2022-08-01T10:08:13;8.53;;;3.67;;
70367;SDS011;57789;53.868;10.728;2022-08-01T10:10:38;7.10;;;3.63;;
70367;SDS011;57789;53.868;10.728;2022-08-01T10:13:04;11.67;;;3.60;;
70367;SDS011;57789;53.868;10.728;2022-08-01T10:15:33;6.20;;;3.60;;
70367;SDS011;57789;53.868;10.728;2022-08-01T10:18:00;10.10;;;3.03;;
70367;SDS011;57789;53.868;10.728;2022-08-01T10:20:29;6.00;;;2.53;;
70367;SDS011;57789;53.868;10.728;2022-08-01T10:23:00;10.40;;;2.30;;
70367;SDS011;57789;53.868;10.728;2022-08-01T10:25:28;5.40;;;2.77;;
70367;SDS011;57789;53.868;10.728;2022-08-01T10:28:00;5.63;;;3.80;;
70367;SDS011;57789;53.868;10.728;2022-08-01T10:30:32;10.63;;;2.67;;
70367;SDS011;57789;53.868;10.728;2022-08-01T10:32:58;4.90;;;2.87;;
70367;SDS011;57789;53.868;10.728;2022-08-01T10:35:24;7.63;;;1.90;;
70367;SDS011;57789;53.868;10.728;2022-08-01T10:37:50;15.00;;;5.30;;
70367;SDS011;57789;53.868;10.728;2022-08-01T10:40:21;8.60;;;2.97;;
70367;SDS011;57789;53.868;10.728;2022-08-01T10:42:47;4.07;;;1.97;;
70367;SDS011;57789;53.868;10.728;2022-08-01T10:45:14;4.90;;;2.90;;
70367;SDS011;57789;53.868;10.728;2022-08-01T10:50:31;10.53;;;2.70;;
70367;SDS011;57789;53.868;10.728;2022-08-01T10:55:51;8.17;;;3.13;;
70367;SDS011;57789;53.868;10.728;2022-08-01T10:58:21;10.70;;;3.30;;
70367;SDS011;57789;53.868;10.728;2022-08-01T11:00:47;11.60;;;4.43;;
70367;SDS011;57789;53.868;10.728;2022-08-01T11:03:12;12.53;;;2.43;;
70367;SDS011;57789;53.868;10.728;2022-08-01T11:05:38;9.93;;;1.83;;
70367;SDS011;57789;53.868;10.728;2022-08-01T11:08:10;9.23;;;2.27;;
70367;SDS011;57789;53.868;10.728;2022-08-01T11:10:46;11.90;;;3.20;;
70367;SDS011;57789;53.868;10.728;2022-08-01T11:13:13;7.73;;;2.30;;
70367;SDS011;57789;53.868;10.728;2022-08-01T11:15:39;8.40;;;2.30;;
70367;SDS011;57789;53.868;10.728;2022-08-01T11:21:02;18.27;;;3.40;;
70367;SDS011;57789;53.868;10.728;2022-08-01T11:23:28;12.63;;;2.90;;
70367;SDS011;57789;53.868;10.728;2022-08-01T11:28:22;10.90;;;1.60;;
70367;SDS011;57789;53.868;10.728;2022-08-01T11:30:50;6.83;;;2.07;;
70367;SDS011;57789;53.868;10.728;2022-08-01T11:38:36;13.07;;;2.47;;
70367;SDS011;57789;53.868;10.728;2022-08-01T11:55:07;9.17;;;1.60;;
70367;SDS011;57789;53.868;10.728;2022-08-01T11:57:34;8.03;;;1.50;;
70367;SDS011;57789;53.868;10.728;2022-08-01T12:02:38;7.33;;;1.70;;
70367;SDS011;57789;53.868;10.728;2022-08-01T12:07:31;8.40;;;2.60;;
70367;SDS011;57789;53.868;10.728;2022-08-01T12:10:00;9.70;;;2.10;;
70367;SDS011;57789;53.868;10.728;2022-08-01T12:12:29;6.67;;;2.00;;
70367;SDS011;57789;53.868;10.728;2022-08-01T12:15:00;4.37;;;2.07;;
70367;SDS011;57789;53.868;10.728;2022-08-01T12:17:29;7.70;;;2.37;;
70367;SDS011;57789;53.868;10.728;2022-08-01T12:19:56;8.27;;;1.93;;
70367;SDS011;57789;53.868;10.728;2022-08-01T12:22:22;11.53;;;1.57;;
70367;SDS011;57789;53.868;10.728;2022-08-01T12:24:49;7.73;;;2.00;;
70367;SDS011;57789;53.868;10.728;2022-08-01T12:27:25;8.57;;;2.90;;
70367;SDS011;57789;53.868;10.728;2022-08-01T12:29:55;7.47;;;2.20;;
70367;SDS011;57789;53.868;10.728;2022-08-01T12:32:29;6.73;;;3.20;;
70367;SDS011;57789;53.868;10.728;2022-08-01T12:34:56;6.90;;;1.50;;
70367;SDS011;57789;53.868;10.728;2022-08-01T12:37:43;6.03;;;2.83;;
70367;SDS011;57789;53.868;10.728;2022-08-01T12:42:45;4.87;;;1.53;;
70367;SDS011;57789;53.868;10.728;2022-08-01T12:45:14;8.83;;;2.27;;
70367;SDS011;57789;53.868;10.728;2022-08-01T12:47:43;7.10;;;1.60;;
70367;SDS011;57789;53.868;10.728;2022-08-01T12:50:11;13.13;;;2.40;;
70367;SDS011;57789;53.868;10.728;2022-08-01T12:52:43;4.70;;;1.60;;
70367;SDS011;57789;53.868;10.728;2022-08-01T12:55:14;8.40;;;2.30;;
70367;SDS011;57789;53.868;10.728;2022-08-01T12:58:02;6.13;;;1.60;;
70367;SDS011;57789;53.868;10.728;2022-08-01T13:00:30;6.00;;;1.97;;
70367;SDS011;57789;53.868;10.728;2022-08-01T13:03:04;6.57;;;1.70;;
70367;SDS011;57789;53.868;10.728;2022-08-01T13:05:50;6.23;;;1.13;;
70367;SDS011;57789;53.868;10.728;2022-08-01T13:08:28;13.50;;;1.80;;
70367;SDS011;57789;53.868;10.728;2022-08-01T13:10:59;8.77;;;2.20;;
70367;SDS011;57789;53.868;10.728;2022-08-01T13:13:40;8.00;;;1.47;;
70367;SDS011;57789;53.868;10.728;2022-08-01T13:16:12;9.23;;;1.80;;
70367;SDS011;57789;53.868;10.728;2022-08-01T13:18:39;9.70;;;1.97;;
70367;SDS011;57789;53.868;10.728;2022-08-01T13:21:15;10.80;;;1.70;;
70367;SDS011;57789;53.868;10.728;2022-08-01T13:29:20;10.70;;;2.73;;
70367;SDS011;57789;53.868;10.728;2022-08-01T13:31:47;8.80;;;1.50;;
70367;SDS011;57789;53.868;10.728;2022-08-01T13:34:14;7.63;;;1.43;;
70367;SDS011;57789;53.868;10.728;2022-08-01T13:36:40;7.93;;;1.73;;
70367;SDS011;57789;53.868;10.728;2022-08-01T13:39:09;10.27;;;2.07;;
70367;SDS011;57789;53.868;10.728;2022-08-01T13:41:53;10.60;;;2.00;;
70367;SDS011;57789;53.868;10.728;2022-08-01T13:44:19;9.83;;;2.23;;
70367;SDS011;57789;53.868;10.728;2022-08-01T13:46:45;9.20;;;2.70;;
70367;SDS011;57789;53.868;10.728;2022-08-01T13:49:12;12.17;;;2.27;;
70367;SDS011;57789;53.868;10.728;2022-08-01T13:51:38;17.10;;;1.70;;
70367;SDS011;57789;53.868;10.728;2022-08-01T13:54:04;9.17;;;1.33;;
70367;SDS011;57789;53.868;10.728;2022-08-01T13:56:30;5.93;;;2.07;;
70367;SDS011;57789;53.868;10.728;2022-08-01T13:58:59;7.40;;;1.30;;
70367;SDS011;57789;53.868;10.728;2022-08-01T14:01:25;14.23;;;1.70;;
70367;SDS011;57789;53.868;10.728;2022-08-01T14:03:51;7.40;;;1.47;;
70367;SDS011;57789;53.868;10.728;2022-08-01T14:06:17;5.90;;;1.30;;
70367;SDS011;57789;53.868;10.728;2022-08-01T14:08:43;7.90;;;1.77;;
70367;SDS011;57789;53.868;10.728;2022-08-01T14:11:09;5.80;;;1.70;;
70367;SDS011;57789;53.868;10.728;2022-08-01T14:13:34;4.93;;;1.20;;
70367;SDS011;57789;53.868;10.728;2022-08-01T14:16:03;7.33;;;1.90;;
70367;SDS011;57789;53.868;10.728;2022-08-01T14:18:29;11.87;;;1.70;;
70367;SDS011;57789;53.868;10.728;2022-08-01T14:20:55;6.90;;;1.80;;
70367;SDS011;57789;53.868;10.728;2022-08-01T14:23:21;6.47;;;1.80;;
70367;SDS011;57789;53.868;10.728;2022-08-01T14:25:50;8.23;;;1.20;;
70367;SDS011;57789;53.868;10.728;2022-08-01T14:28:15;3.77;;;1.20;;
70367;SDS011;57789;53.868;10.728;2022-08-01T14:30:41;5.80;;;1.30;;
70367;SDS011;57789;53.868;10.728;2022-08-01T14:33:08;4.50;;;1.27;;
70367;SDS011;57789;53.868;10.728;2022-08-01T14:35:34;6.90;;;1.90;;
70367;SDS011;57789;53.868;10.728;2022-08-01T14:37:59;5.03;;;1.20;;
70367;SDS011;57789;53.868;10.728;2022-08-01T14:40:25;6.23;;;1.37;;
70367;SDS011;57789;53.868;10.728;2022-08-01T14:42:51;5.73;;;1.20;;
70367;SDS011;57789;53.868;10.728;2022-08-01T14:45:17;5.60;;;1.20;;
70367;SDS011;57789;53.868;10.728;2022-08-01T14:47:42;2.83;;;0.97;;
70367;SDS011;57789;53.868;10.728;2022-08-01T14:50:09;5.13;;;1.47;;
70367;SDS011;57789;53.868;10.728;2022-08-01T14:52:38;4.37;;;1.60;;
70367;SDS011;57789;53.868;10.728;2022-08-01T14:55:05;4.27;;;1.30;;
70367;SDS011;57789;53.868;10.728;2022-08-01T14:57:33;5.23;;;1.43;;
70367;SDS011;57789;53.868;10.728;2022-08-01T14:59:59;3.60;;;1.00;;
70367;SDS011;57789;53.868;10.728;2022-08-01T15:02:25;7.70;;;1.70;;
70367;SDS011;57789;53.868;10.728;2022-08-01T15:04:50;4.43;;;1.57;;
70367;SDS011;57789;53.868;10.728;2022-08-01T15:07:16;4.70;;;1.50;;
70367;SDS011;57789;53.868;10.728;2022-08-01T15:09:43;8.20;;;1.27;;
70367;SDS011;57789;53.868;10.728;2022-08-01T15:12:10;3.73;;;1.33;;
70367;SDS011;57789;53.868;10.728;2022-08-01T15:14:36;8.67;;;1.63;;
70367;SDS011;57789;53.868;10.728;2022-08-01T15:17:21;7.60;;;1.43;;
70367;SDS011;57789;53.868;10.728;2022-08-01T15:19:54;1.50;;;0.80;;
70367;SDS011;57789;53.868;10.728;2022-08-01T15:22:21;5.73;;;1.33;;
70367;SDS011;57789;53.868;10.728;2022-08-01T15:24:49;9.23;;;1.40;;
70367;SDS011;57789;53.868;10.728;2022-08-01T15:27:15;5.60;;;1.70;;